METAR Data
IDs: Format: Raw Decoded Include TAF

Data at: 0133 UTC 20 Jul 2019

METAR for:KCBF (Council Bluffs Muni, IA, US)
Text:KCBF 200115Z AUTO 18009KT 9SM CLR 32/28 A2971 RMK AO2
Temperature: 32.0°C ( 90°F)
Dewpoint: 28.0°C ( 82°F) [RH = 80%]
Pressure (altimeter):29.71 inches Hg (1006.2 mb)
Winds:from the S (180 degrees) at 10 MPH (9 knots; 4.6 m/s)
Visibility: 9 sm ( 14 km)
Ceiling:at least 12,000 feet AGL
Clouds:sky clear below 12,000 feet AGL
QC Flag:automated observation with no human augmentation